TimeMDT,TemperatureF,Dew PointF,Humidity,Sea Level PressureIn,VisibilityMPH,Wind Direction,Wind SpeedMPH,Gust SpeedMPH,PrecipitationIn,Events,Conditions,WindDirDegrees,DateUTC
12:53 AM,28.9,23.0,78,30.11,10.0,Variable,4.6,-,N/A,,Clear,0,2013-03-29 06:53:00
1:53 AM,28.9,21.9,75,30.13,10.0,WNW,4.6,-,N/A,,Clear,300,2013-03-29 07:53:00
2:53 AM,28.0,21.9,78,30.13,10.0,NW,3.5,-,N/A,,Clear,310,2013-03-29 08:53:00
3:53 AM,30.0,21.9,72,30.08,10.0,WNW,4.6,-,N/A,,Clear,300,2013-03-29 09:53:00
4:53 AM,30.0,21.9,72,30.07,10.0,Calm,Calm,-,N/A,,Clear,0,2013-03-29 10:53:00
5:53 AM,30.9,21.9,69,30.07,10.0,NW,5.8,-,N/A,,Clear,310,2013-03-29 11:53:00
6:53 AM,28.9,21.9,75,30.09,10.0,Calm,Calm,-,N/A,,Scattered Clouds,0,2013-03-29 12:53:00
7:53 AM,37.9,28.0,68,30.06,10.0,Calm,Calm,-,N/A,,Mostly Cloudy,0,2013-03-29 13:53:00
8:53 AM,48.0,28.0,46,30.03,10.0,West,5.8,-,N/A,,Mostly Cloudy,280,2013-03-29 14:53:00
9:53 AM,54.0,21.0,28,30.02,10.0,WSW,5.8,-,N/A,,Clear,250,2013-03-29 15:53:00
10:53 AM,55.0,21.9,28,30.02,10.0,SSW,8.1,-,N/A,,Overcast,210,2013-03-29 16:53:00
11:53 AM,57.0,21.9,26,30.00,10.0,West,9.2,23.0,N/A,,Partly Cloudy,280,2013-03-29 17:53:00
12:53 PM,57.0,27.0,32,29.99,10.0,West,8.1,17.3,N/A,,Partly Cloudy,270,2013-03-29 18:53:00
1:53 PM,55.9,27.0,33,29.99,10.0,WNW,8.1,16.1,N/A,,Clear,300,2013-03-29 19:53:00
2:53 PM,55.9,28.9,36,29.98,10.0,Variable,5.8,-,N/A,,Partly Cloudy,0,2013-03-29 20:53:00
3:53 PM,55.0,24.1,30,29.97,10.0,North,8.1,-,N/A,,Overcast,350,2013-03-29 21:53:00
4:53 PM,57.0,19.0,23,29.96,10.0,WNW,10.4,28.8,N/A,,Clear,290,2013-03-29 22:53:00
5:53 PM,55.9,18.0,23,29.97,10.0,NNW,6.9,17.3,N/A,,Clear,330,2013-03-29 23:53:00
6:53 PM,52.0,18.0,26,30.01,10.0,WNW,3.5,-,N/A,,Partly Cloudy,290,2013-03-30 00:53:00
7:53 PM,48.0,19.0,32,30.00,10.0,North,4.6,-,N/A,,Scattered Clouds,360,2013-03-30 01:53:00
8:53 PM,46.0,27.0,47,29.99,10.0,North,4.6,-,N/A,,Mostly Cloudy,360,2013-03-30 02:53:00
9:53 PM,44.1,28.9,55,29.97,10.0,NNW,5.8,-,N/A,,Overcast,340,2013-03-30 03:53:00
10:53 PM,41.0,28.9,62,29.99,10.0,WNW,3.5,-,N/A,,Overcast,290,2013-03-30 04:53:00
11:53 PM,39.0,28.0,65,30.00,10.0,SW,3.5,-,N/A,,Mostly Cloudy,230,2013-03-30 05:53:00